createdAt,value
2022-11-23T00:00:48.336Z,95246.16
2022-11-23T00:03:16.863Z,95250.97
2022-11-23T00:05:44.694Z,95241.91
2022-11-23T00:08:12.458Z,95248.47
2022-11-23T00:10:40.197Z,95246.66
2022-11-23T00:13:09.431Z,95246.50
2022-11-23T00:15:37.229Z,95231.53
2022-11-23T00:18:05.073Z,95243.41
2022-11-23T00:20:32.866Z,95243.03
2022-11-23T00:23:00.651Z,95243.16
2022-11-23T00:25:28.388Z,95240.63
2022-11-23T00:27:56.126Z,95235.66
2022-11-23T00:30:25.304Z,95239.09
2022-11-23T00:32:52.981Z,95234.00
2022-11-23T00:35:20.801Z,95238.63
2022-11-23T00:37:48.500Z,95235.88
2022-11-23T00:40:17.213Z,95239.09
2022-11-23T00:42:44.972Z,95235.75
2022-11-23T00:45:12.717Z,95233.09
2022-11-23T00:47:41.731Z,95236.44
2022-11-23T00:50:10.325Z,95237.25
2022-11-23T00:52:38.078Z,95236.69
2022-11-23T00:55:06.665Z,95241.41
2022-11-23T00:57:34.424Z,95245.69
2022-11-23T01:00:02.265Z,95244.91
2022-11-23T01:02:30.027Z,95240.63
2022-11-23T01:04:59.109Z,95240.38
2022-11-23T01:07:26.849Z,95240.88
2022-11-23T01:09:54.682Z,95247.06
2022-11-23T01:12:22.388Z,95241.78
2022-11-23T01:14:50.153Z,95246.41
2022-11-23T01:17:17.889Z,95245.69
2022-11-23T01:19:45.703Z,95247.09
2022-11-23T01:22:14.798Z,95241.06
2022-11-23T01:24:42.540Z,95253.72
2022-11-23T01:27:10.255Z,95249.13
2022-11-23T01:29:37.969Z,95244.50
2022-11-23T01:32:05.894Z,95244.50
2022-11-23T01:34:33.889Z,95239.16
2022-11-23T01:37:01.629Z,95246.84
2022-11-23T01:39:30.996Z,95246.94
2022-11-23T01:41:58.910Z,95241.38
2022-11-23T01:44:29.852Z,95242.84
2022-11-23T01:46:59.986Z,95231.44
2022-11-23T01:49:31.274Z,95248.91
2022-11-23T01:52:03.870Z,95238.53
2022-11-23T01:54:37.687Z,95248.56
2022-11-23T01:57:10.159Z,95254.44
2022-11-23T01:59:38.650Z,95244.88
2022-11-23T02:02:07.383Z,95248.38
2022-11-23T02:04:40.086Z,95249.47
2022-11-23T02:07:08.255Z,95247.38
2022-11-23T02:09:38.297Z,95253.56
2022-11-23T02:12:11.663Z,95247.09
2022-11-23T02:14:39.862Z,95240.13
2022-11-23T02:17:07.689Z,95243.22
2022-11-23T02:19:47.642Z,95241.38
2022-11-23T02:22:25.136Z,95245.97
2022-11-23T02:24:56.316Z,95245.22
2022-11-23T02:27:26.213Z,95252.25
2022-11-23T02:29:56.565Z,95257.28
2022-11-23T02:32:25.742Z,95244.91
2022-11-23T02:34:53.448Z,95257.19
2022-11-23T02:37:21.242Z,95253.97
2022-11-23T02:39:52.237Z,95251.97
2022-11-23T02:42:20.037Z,95258.81
2022-11-23T02:44:56.974Z,95250.84
2022-11-23T02:47:24.884Z,95255.00
2022-11-23T02:49:52.660Z,95253.44
2022-11-23T02:52:20.614Z,95251.84
2022-11-23T02:54:48.434Z,95254.06
2022-11-23T02:57:16.392Z,95254.47
2022-11-23T02:59:44.197Z,95242.75
2022-11-23T03:02:13.320Z,95259.03
2022-11-23T03:04:41.121Z,95257.44
2022-11-23T03:07:08.899Z,95252.66
2022-11-23T03:09:36.604Z,95252.13
2022-11-23T03:12:04.521Z,95245.25
2022-11-23T03:14:32.284Z,95243.91
2022-11-23T03:17:00.264Z,95245.25
2022-11-23T03:19:29.509Z,95244.47
2022-11-23T03:21:57.394Z,95251.09
2022-11-23T03:24:25.249Z,95249.66
2022-11-23T03:26:53.246Z,95242.28
2022-11-23T03:29:21.011Z,95235.41
2022-11-23T03:31:48.692Z,95240.69
2022-11-23T03:34:16.394Z,95239.88
2022-11-23T03:36:45.543Z,95243.59
2022-11-23T03:39:13.622Z,95239.00
2022-11-23T03:41:41.504Z,95242.00
2022-11-23T03:44:09.226Z,95234.94
2022-11-23T03:46:36.890Z,95229.06
2022-11-23T03:49:04.768Z,95230.97
2022-11-23T03:51:32.540Z,95235.56
2022-11-23T03:54:01.666Z,95226.31
2022-11-23T03:56:29.401Z,95226.09
2022-11-23T03:58:57.218Z,95226.38
2022-11-23T04:01:25.023Z,95225.75
2022-11-23T04:03:53.155Z,95224.06
2022-11-23T04:06:21.021Z,95217.22
2022-11-23T04:08:48.730Z,95216.38
2022-11-23T04:11:17.884Z,95215.00
2022-11-23T04:13:45.691Z,95222.13
2022-11-23T04:16:13.436Z,95220.22
2022-11-23T04:18:41.658Z,95208.22
2022-11-23T04:21:09.456Z,95214.50
2022-11-23T04:23:37.204Z,95210.53
2022-11-23T04:26:05.088Z,95202.44
2022-11-23T04:28:34.229Z,95198.72
2022-11-23T04:31:01.943Z,95198.94
2022-11-23T04:33:31.671Z,95192.75
2022-11-23T04:35:59.504Z,95187.63
2022-11-23T04:38:27.406Z,95189.13
2022-11-23T04:40:55.270Z,95186.72
2022-11-23T04:43:23.019Z,95188.78
2022-11-23T04:45:52.156Z,95174.63
2022-11-23T04:48:19.935Z,95181.31
2022-11-23T04:50:49.136Z,95175.41
2022-11-23T04:53:18.687Z,95180.53
2022-11-23T04:55:47.666Z,95185.19
2022-11-23T04:58:15.500Z,95167.50
2022-11-23T05:00:43.394Z,95190.91
2022-11-23T05:03:12.546Z,95186.88
2022-11-23T05:05:40.980Z,95184.84
2022-11-23T05:08:09.504Z,95184.59
2022-11-23T05:10:50.878Z,95190.75
2022-11-23T05:13:18.609Z,95191.19
2022-11-23T05:15:46.384Z,95188.19
2022-11-23T05:18:15.692Z,95187.81
2022-11-23T05:20:43.382Z,95194.78
2022-11-23T05:23:11.341Z,95177.09
2022-11-23T05:25:39.632Z,95193.28
2022-11-23T05:28:30.191Z,95186.59
2022-11-23T05:30:55.152Z,95183.94
2022-11-23T05:33:24.279Z,95181.25
2022-11-23T05:35:51.967Z,95186.31
2022-11-23T05:38:19.668Z,95185.13
2022-11-23T05:40:47.428Z,95176.56
2022-11-23T05:43:15.261Z,95180.09
2022-11-23T05:45:42.951Z,95188.41
2022-11-23T05:48:11.001Z,95185.78
2022-11-23T05:50:40.079Z,95181.56
2022-11-23T05:53:07.820Z,95195.72
2022-11-23T05:55:35.533Z,95195.94
2022-11-23T05:58:03.800Z,95187.28
2022-11-23T06:00:31.656Z,95195.19
2022-11-23T06:03:01.461Z,95184.25
2022-11-23T06:05:29.607Z,95186.81
2022-11-23T06:07:58.772Z,95171.91
2022-11-23T06:10:26.463Z,95199.00
2022-11-23T06:12:54.274Z,95204.66
2022-11-23T06:15:22.049Z,95192.97
2022-11-23T06:17:49.771Z,95204.16
2022-11-23T06:20:17.702Z,95201.63
2022-11-23T06:22:45.472Z,95201.84
2022-11-23T06:25:14.640Z,95201.84
2022-11-23T06:27:42.766Z,95195.56
2022-11-23T06:30:11.541Z,95202.25
2022-11-23T06:32:39.542Z,95204.16
2022-11-23T06:35:07.700Z,95203.53
2022-11-23T06:37:35.372Z,95202.19
2022-11-23T06:40:03.131Z,95212.72
2022-11-23T06:42:38.825Z,95212.66
2022-11-23T06:45:08.869Z,95212.06
2022-11-23T06:47:36.755Z,95205.34
2022-11-23T06:50:05.550Z,95202.91
2022-11-23T06:52:33.406Z,95217.69
2022-11-23T06:55:01.058Z,95228.41
2022-11-23T06:57:28.830Z,95222.50
2022-11-23T06:59:57.892Z,95233.69
2022-11-23T07:02:25.684Z,95231.28
2022-11-23T07:04:53.390Z,95233.06
2022-11-23T07:07:21.198Z,95237.06
2022-11-23T07:09:49.083Z,95241.91
2022-11-23T07:12:16.791Z,95242.09
2022-11-23T07:14:44.493Z,95244.72
2022-11-23T07:17:17.263Z,95247.72
2022-11-23T07:19:45.427Z,95243.09
2022-11-23T07:22:13.173Z,95259.19
2022-11-23T07:24:46.400Z,95258.56
2022-11-23T07:27:14.687Z,95258.75
2022-11-23T07:29:42.378Z,95250.97
2022-11-23T07:32:10.139Z,95265.66
2022-11-23T07:34:39.191Z,95261.69
2022-11-23T07:37:06.932Z,95260.03
2022-11-23T07:39:56.413Z,95261.59
2022-11-23T07:42:33.610Z,95256.97
2022-11-23T07:45:04.132Z,95265.00
2022-11-23T07:47:32.089Z,95262.16
2022-11-23T07:50:01.183Z,95259.81
2022-11-23T07:52:28.930Z,95260.00
2022-11-23T07:54:56.843Z,95254.25
2022-11-23T07:57:24.629Z,95245.88
2022-11-23T07:59:52.289Z,95233.44
2022-11-23T08:02:20.067Z,95235.81
2022-11-23T08:04:48.229Z,95233.34
2022-11-23T08:07:17.359Z,95235.31
2022-11-23T08:09:45.069Z,95231.56
2022-11-23T08:12:12.786Z,95234.38
2022-11-23T08:14:40.482Z,95235.09
2022-11-23T08:17:08.679Z,95229.59
2022-11-23T08:19:36.362Z,95231.78
2022-11-23T08:22:04.124Z,95227.31
2022-11-23T08:24:33.671Z,95234.50
2022-11-23T08:27:01.676Z,95224.50
2022-11-23T08:29:31.252Z,95228.47
2022-11-23T08:31:58.942Z,95229.66
2022-11-23T08:34:26.915Z,95217.00
2022-11-23T08:36:54.679Z,95217.16
2022-11-23T08:39:22.495Z,95215.19
2022-11-23T08:41:51.676Z,95209.06
2022-11-23T08:44:19.439Z,95208.22
2022-11-23T08:46:48.264Z,95225.84
2022-11-23T08:49:15.986Z,95223.25
2022-11-23T08:51:49.691Z,95235.53
2022-11-23T08:54:17.809Z,95226.81
2022-11-23T08:56:45.613Z,95227.91
2022-11-23T08:59:14.707Z,95223.75
2022-11-23T09:01:42.428Z,95233.69
2022-11-23T09:04:10.259Z,95231.34
2022-11-23T09:06:38.287Z,95234.94
2022-11-23T09:09:06.203Z,95224.28
2022-11-23T09:11:33.963Z,95218.75
2022-11-23T09:14:01.706Z,95226.63
2022-11-23T09:16:33.883Z,95231.41
2022-11-23T09:19:02.353Z,95228.09
2022-11-23T09:21:33.400Z,95230.09
2022-11-23T09:24:01.084Z,95227.66
2022-11-23T09:26:30.478Z,95224.13
2022-11-23T09:28:58.208Z,95221.91
2022-11-23T09:31:28.840Z,95236.00
2022-11-23T09:33:58.042Z,95225.00
2022-11-23T09:36:26.200Z,95227.91
2022-11-23T09:38:57.054Z,95229.16
2022-11-23T09:41:52.624Z,95241.59
2022-11-23T09:44:25.518Z,95244.69
2022-11-23T09:47:04.441Z,95234.00
2022-11-23T09:49:44.598Z,95231.56
2022-11-23T09:52:18.911Z,95237.94
2022-11-23T09:54:49.637Z,95237.84
2022-11-23T09:57:21.639Z,95237.47
2022-11-23T09:59:54.901Z,95222.25
2022-11-23T10:02:25.334Z,95234.94
2022-11-23T10:04:54.875Z,95231.97
2022-11-23T10:07:36.428Z,95231.28
2022-11-23T10:10:14.802Z,95223.25
2022-11-23T10:12:53.236Z,95220.47
2022-11-23T10:15:26.577Z,95218.84
2022-11-23T10:18:08.769Z,95226.66
2022-11-23T10:20:50.579Z,95225.16
2022-11-23T10:23:31.311Z,95215.59
2022-11-23T10:26:00.224Z,95217.00
2022-11-23T10:28:32.806Z,95205.88
2022-11-23T10:31:08.384Z,95212.13
2022-11-23T10:33:42.700Z,95203.53
2022-11-23T10:36:13.617Z,95209.69
2022-11-23T10:38:42.425Z,95205.50
2022-11-23T10:41:12.348Z,95209.88
2022-11-23T10:43:45.257Z,95211.25
2022-11-23T10:46:31.869Z,95213.41
2022-11-23T10:49:15.207Z,95212.19
2022-11-23T10:51:51.035Z,95205.25
2022-11-23T10:54:23.378Z,95206.94
2022-11-23T10:56:53.074Z,95198.53
2022-11-23T10:59:29.517Z,95187.81
2022-11-23T11:02:03.218Z,95193.72
2022-11-23T11:04:31.536Z,95191.56
2022-11-23T11:07:20.655Z,95164.84
2022-11-23T11:09:52.943Z,95172.16
2022-11-23T11:12:21.056Z,95164.59
2022-11-23T11:15:11.670Z,95167.66
2022-11-23T11:17:41.434Z,95165.97
2022-11-23T11:20:33.770Z,95173.16
2022-11-23T11:23:05.241Z,95168.28
2022-11-23T11:25:36.809Z,95169.56
2022-11-23T11:28:06.624Z,95168.63
2022-11-23T11:30:45.795Z,95164.22
2022-11-23T11:33:19.149Z,95161.22
2022-11-23T11:35:51.432Z,95156.84
2022-11-23T11:38:27.514Z,95160.69
2022-11-23T11:40:57.090Z,95160.03
2022-11-23T11:43:37.858Z,95155.22
2022-11-23T11:49:04.668Z,95142.06
2022-11-23T11:51:35.472Z,95139.47
2022-11-23T11:54:12.594Z,95123.66
2022-11-23T11:56:44.260Z,95097.97
2022-11-23T11:59:17.592Z,95119.50
2022-11-23T12:01:54.233Z,95126.56
2022-11-23T12:04:27.557Z,95130.22
2022-11-23T12:07:04.864Z,95124.50
2022-11-23T12:09:39.844Z,95128.56
2022-11-23T12:12:14.164Z,95134.00
2022-11-23T12:14:41.976Z,95138.50
2022-11-23T12:17:32.759Z,95136.41
2022-11-23T12:20:12.556Z,95130.91
2022-11-23T12:22:52.965Z,95126.22
2022-11-23T12:25:33.379Z,95118.34
2022-11-23T12:28:17.504Z,95124.63
2022-11-23T12:30:56.477Z,95128.66
2022-11-23T12:36:44.913Z,95120.06
2022-11-23T12:39:28.174Z,95129.75
2022-11-23T12:42:04.219Z,95121.00
2022-11-23T12:44:53.992Z,95114.44
2022-11-23T12:47:35.044Z,95112.56
2022-11-23T12:50:14.774Z,95114.66
2022-11-23T12:52:57.007Z,95118.03
2022-11-23T12:55:25.886Z,95108.47
2022-11-23T12:58:03.511Z,95109.84
2022-11-23T13:00:35.666Z,95106.47
2022-11-23T13:03:55.259Z,95105.81
2022-11-23T13:06:36.590Z,95097.06
2022-11-23T13:09:35.184Z,95096.34
2022-11-23T13:12:18.611Z,95094.25
2022-11-23T13:14:58.496Z,95090.00
2022-11-23T13:17:35.336Z,95087.91
2022-11-23T13:20:16.288Z,95090.06
2022-11-23T13:22:46.078Z,95088.88
2022-11-23T13:25:23.628Z,95096.91
2022-11-23T13:28:03.356Z,95095.84
2022-11-23T13:30:59.289Z,95084.81
2022-11-23T13:33:37.897Z,95091.13
2022-11-23T13:36:11.446Z,95087.00
2022-11-23T13:38:45.000Z,95083.50
2022-11-23T13:41:52.586Z,95085.94
2022-11-23T13:44:24.275Z,95076.91
2022-11-23T13:47:06.664Z,95077.72
2022-11-23T13:49:42.462Z,95079.25
2022-11-23T13:52:37.081Z,95080.06
2022-11-23T13:55:20.113Z,95071.50
2022-11-23T13:58:22.782Z,95080.06
2022-11-23T14:00:52.322Z,95059.75
2022-11-23T14:03:55.673Z,95068.91
2022-11-23T14:06:43.246Z,95068.03
2022-11-23T14:09:17.249Z,95070.06
2022-11-23T14:11:57.286Z,95071.97
2022-11-23T14:14:30.396Z,95072.50
2022-11-23T14:17:23.860Z,95075.66
2022-11-23T14:20:19.560Z,95043.06
2022-11-23T14:23:01.414Z,95075.28
2022-11-23T14:25:40.340Z,95076.16
2022-11-23T14:28:21.494Z,95069.50
2022-11-23T14:31:08.804Z,95064.06
2022-11-23T14:33:45.693Z,95064.81
2022-11-23T14:36:27.036Z,95067.69
2022-11-23T14:39:20.887Z,95065.28
2022-11-23T14:41:51.713Z,95059.88
2022-11-23T14:44:24.512Z,95048.13
2022-11-23T14:47:02.288Z,95048.28
2022-11-23T14:49:30.332Z,95049.94
2022-11-23T14:52:00.710Z,95054.31
2022-11-23T14:54:30.204Z,95038.31
2022-11-23T14:57:01.672Z,95062.78
2022-11-23T14:59:33.478Z,95065.78
2022-11-23T15:02:03.612Z,95041.84
2022-11-23T15:04:35.104Z,95056.00
2022-11-23T15:07:11.547Z,95050.25
2022-11-23T15:09:50.956Z,95045.19
2022-11-23T15:12:23.601Z,95044.03
2022-11-23T15:14:51.942Z,95045.16
2022-11-23T15:17:21.707Z,95050.31
2022-11-23T15:19:57.245Z,95055.88
2022-11-23T15:22:27.060Z,95059.88
2022-11-23T15:24:55.593Z,95057.09
2022-11-23T15:27:28.594Z,95074.59
2022-11-23T15:29:57.668Z,95070.84
2022-11-23T15:32:31.438Z,95078.56
2022-11-23T15:35:02.824Z,95073.81
2022-11-23T15:37:32.408Z,95067.13
2022-11-23T15:40:01.066Z,95064.47
2022-11-23T15:42:29.844Z,95064.47
2022-11-23T15:44:57.580Z,95086.22
2022-11-23T15:47:28.285Z,95087.22
2022-11-23T15:50:01.417Z,95100.19
2022-11-23T15:52:35.465Z,95090.31
2022-11-23T15:55:09.217Z,95111.16
2022-11-23T15:57:39.811Z,95107.19
2022-11-23T16:00:10.467Z,95117.34
2022-11-23T16:02:38.357Z,95120.56
2022-11-23T16:05:14.390Z,95119.19
2022-11-23T16:07:54.832Z,95136.19
2022-11-23T16:10:25.948Z,95143.06
2022-11-23T16:12:55.261Z,95149.72
2022-11-23T16:15:41.980Z,95143.47
2022-11-23T16:18:22.766Z,95161.28
2022-11-23T16:20:53.253Z,95159.44
2022-11-23T16:23:24.601Z,95168.03
2022-11-23T16:25:58.183Z,95179.59
2022-11-23T16:28:30.609Z,95181.03
2022-11-23T16:30:59.231Z,95175.84
2022-11-23T16:33:27.379Z,95184.56
2022-11-23T16:35:55.174Z,95190.59
2022-11-23T16:38:25.347Z,95196.91
2022-11-23T16:40:53.225Z,95220.91
2022-11-23T16:43:20.999Z,95251.44
2022-11-23T16:45:51.686Z,95253.44
2022-11-23T16:48:43.660Z,95264.50
2022-11-23T16:51:14.435Z,95266.94
2022-11-23T16:56:33.581Z,95302.59
2022-11-23T16:59:01.369Z,95312.78
2022-11-23T17:01:31.436Z,95305.41
2022-11-23T17:03:59.299Z,95309.06
2022-11-23T17:06:27.264Z,95317.59
2022-11-23T17:09:04.726Z,95320.72
2022-11-23T17:11:38.373Z,95322.81
2022-11-23T17:14:07.171Z,95315.31
2022-11-23T17:16:35.182Z,95329.50
2022-11-23T17:19:02.998Z,95337.81
2022-11-23T17:21:30.700Z,95336.38
2022-11-23T17:23:59.813Z,95338.69
2022-11-23T17:26:32.242Z,95345.06
2022-11-23T17:29:02.502Z,95339.75
2022-11-23T17:31:30.541Z,95356.78
2022-11-23T17:33:58.719Z,95351.34
2022-11-23T17:36:27.338Z,95363.44
2022-11-23T17:38:55.439Z,95373.38
2022-11-23T17:41:24.572Z,95376.97
2022-11-23T17:43:52.261Z,95388.38
2022-11-23T17:46:23.813Z,95382.19
2022-11-23T17:48:56.269Z,95403.19
2022-11-23T17:51:24.696Z,95411.94
2022-11-23T17:53:52.566Z,95420.03
2022-11-23T17:56:22.115Z,95431.25
2022-11-23T17:58:52.354Z,95429.25
2022-11-23T18:01:21.615Z,95440.72
2022-11-23T18:03:49.660Z,95455.03
2022-11-23T18:06:19.488Z,95469.34
2022-11-23T18:08:48.610Z,95482.06
2022-11-23T18:11:17.244Z,95481.72
2022-11-23T18:13:45.077Z,95490.13
2022-11-23T18:16:14.454Z,95473.50
2022-11-23T18:18:42.261Z,95502.72
2022-11-23T18:21:10.895Z,95516.56
2022-11-23T18:23:38.811Z,95514.59
2022-11-23T18:26:14.778Z,95526.97
2022-11-23T18:28:42.650Z,95548.09
2022-11-23T18:31:10.547Z,95542.44
2022-11-23T18:33:39.794Z,95530.78
2022-11-23T18:36:08.336Z,95551.38
2022-11-23T18:38:36.257Z,95546.94
2022-11-23T18:41:04.245Z,95542.91
2022-11-23T18:43:32.143Z,95561.75
2022-11-23T18:46:00.029Z,95560.59
2022-11-23T18:48:27.852Z,95570.63
2022-11-23T18:50:56.898Z,95578.38
2022-11-23T18:53:24.646Z,95584.75
2022-11-23T18:55:56.150Z,95587.88
2022-11-23T18:58:26.824Z,95604.16
2022-11-23T19:00:54.566Z,95598.94
2022-11-23T19:03:22.261Z,95604.16
2022-11-23T19:05:50.236Z,95624.13
2022-11-23T19:08:19.349Z,95623.78
2022-11-23T19:10:47.175Z,95643.44
2022-11-23T19:13:14.942Z,95635.91
2022-11-23T19:15:42.742Z,95655.56
2022-11-23T19:18:10.599Z,95659.50
2022-11-23T19:20:38.430Z,95637.19
2022-11-23T19:23:06.216Z,95671.97
2022-11-23T19:25:35.263Z,95680.78
2022-11-23T19:28:02.975Z,95681.34
2022-11-23T19:30:30.743Z,95672.00
2022-11-23T19:32:59.679Z,95689.28
2022-11-23T19:35:27.385Z,95682.97
2022-11-23T19:37:55.110Z,95694.53
2022-11-23T19:40:23.011Z,95699.38
2022-11-23T19:42:52.057Z,95697.63
2022-11-23T19:45:19.807Z,95702.94
2022-11-23T19:47:47.567Z,95719.50
2022-11-23T19:50:15.399Z,95719.50
2022-11-23T19:53:10.762Z,95712.78
2022-11-23T19:55:30.964Z,95732.69
2022-11-23T19:58:00.052Z,95728.88
2022-11-23T20:00:27.752Z,95736.63
2022-11-23T20:02:59.391Z,95734.41
2022-11-23T20:05:27.310Z,95745.06
2022-11-23T20:07:55.180Z,95719.81
2022-11-23T20:10:22.898Z,95758.50
2022-11-23T20:12:50.640Z,95761.38
2022-11-23T20:15:19.786Z,95765.53
2022-11-23T20:17:48.767Z,95775.44
2022-11-23T20:20:17.252Z,95777.75
2022-11-23T20:22:45.542Z,95776.28
2022-11-23T20:25:13.271Z,95774.72
2022-11-23T20:27:41.229Z,95782.69
2022-11-23T20:30:09.667Z,95788.16
2022-11-23T20:32:38.868Z,95801.44
2022-11-23T20:35:07.405Z,95813.13
2022-11-23T20:37:35.187Z,95814.72
2022-11-23T20:40:03.017Z,95829.41
2022-11-23T20:42:30.763Z,95846.75
2022-11-23T20:44:58.513Z,95837.31
2022-11-23T20:47:27.983Z,95853.06
2022-11-23T20:49:57.138Z,95848.34
2022-11-23T20:52:24.950Z,95892.50
2022-11-23T20:54:52.865Z,95903.44
2022-11-23T20:57:21.908Z,95902.03
2022-11-23T20:59:50.192Z,95904.25
2022-11-23T21:02:18.216Z,95923.44
2022-11-23T21:04:46.629Z,95931.75
2022-11-23T21:07:15.792Z,95932.19
2022-11-23T21:09:43.547Z,95935.44
2022-11-23T21:12:28.889Z,95938.97
2022-11-23T21:14:56.717Z,95932.72
2022-11-23T21:17:24.507Z,95942.00
2022-11-23T21:19:52.181Z,95951.00
2022-11-23T21:22:21.234Z,95961.72
2022-11-23T21:24:49.004Z,95959.34
2022-11-23T21:27:17.207Z,95972.41
2022-11-23T21:29:45.153Z,95968.94
2022-11-23T21:32:14.631Z,95983.81
2022-11-23T21:34:42.465Z,95982.25
2022-11-23T21:37:12.516Z,95983.50
2022-11-23T21:39:43.784Z,95966.06
2022-11-23T21:42:13.347Z,95957.66
2022-11-23T21:44:41.135Z,95955.91
2022-11-23T21:47:08.903Z,95941.84
2022-11-23T21:49:36.673Z,95967.16
2022-11-23T21:52:04.651Z,95954.47
2022-11-23T21:54:32.560Z,95962.41
2022-11-23T21:57:02.086Z,95955.34
2022-11-23T21:59:29.855Z,95970.97
2022-11-23T22:01:58.595Z,95975.31
2022-11-23T22:04:26.578Z,95985.44
2022-11-23T22:06:54.262Z,95962.69
2022-11-23T22:09:21.999Z,95970.91
2022-11-23T22:11:49.694Z,95968.63
2022-11-23T22:14:19.687Z,95963.78
2022-11-23T22:16:49.974Z,95958.75
2022-11-23T22:19:18.888Z,95964.34
2022-11-23T22:21:47.118Z,95989.00
2022-11-23T22:24:16.527Z,95943.00
2022-11-23T22:26:45.030Z,95988.16
2022-11-23T22:29:13.109Z,95995.91
2022-11-23T22:31:43.611Z,95991.88
2022-11-23T22:34:13.511Z,95997.19
2022-11-23T22:36:41.618Z,95969.38
2022-11-23T22:39:09.965Z,96016.97
2022-11-23T22:41:38.455Z,96010.38
2022-11-23T22:44:08.057Z,96002.75
2022-11-23T22:46:36.472Z,96009.38
2022-11-23T22:49:05.956Z,95993.75
2022-11-23T22:51:34.001Z,95997.59
2022-11-23T22:54:02.508Z,96005.13
2022-11-23T22:56:31.520Z,95999.66
2022-11-23T22:58:59.367Z,95997.44
2022-11-23T23:01:29.637Z,95994.63
2022-11-23T23:03:58.667Z,95997.34
2022-11-23T23:06:29.431Z,95991.81
2022-11-23T23:08:58.828Z,95984.38
2022-11-23T23:11:28.791Z,95997.13
2022-11-23T23:13:57.201Z,95985.19
2022-11-23T23:16:25.651Z,95994.09
2022-11-23T23:18:56.431Z,95982.53
2022-11-23T23:21:25.143Z,95995.31
2022-11-23T23:23:55.994Z,95997.81
2022-11-23T23:26:27.224Z,96008.97
2022-11-23T23:28:56.220Z,95978.16
2022-11-23T23:31:25.127Z,95992.59
2022-11-23T23:33:54.466Z,95998.53
2022-11-23T23:36:23.496Z,96000.78
2022-11-23T23:38:52.016Z,95997.72
2022-11-23T23:41:21.437Z,96002.84
2022-11-23T23:43:49.283Z,96015.06
2022-11-23T23:46:17.411Z,96013.00
2022-11-23T23:48:45.427Z,96017.09
2022-11-23T23:51:15.343Z,96015.09
2022-11-23T23:53:43.997Z,96015.25
2022-11-23T23:56:14.655Z,96012.81
2022-11-23T23:58:44.047Z,96020.28
